sensor_id;sensor_type;location;lat;lon;timestamp;temperature;humidity
17849;DHT22;9050;48.746;9.232;2023-03-23T00:01:13;12.60;99.90
17849;DHT22;9050;48.746;9.232;2023-03-23T00:03:45;12.60;99.90
17849;DHT22;9050;48.746;9.232;2023-03-23T00:06:13;12.60;99.90
17849;DHT22;9050;48.746;9.232;2023-03-23T00:08:44;12.60;99.90
17849;DHT22;9050;48.746;9.232;2023-03-23T00:11:14;12.60;99.90
17849;DHT22;9050;48.746;9.232;2023-03-23T00:13:42;12.60;99.90
17849;DHT22;9050;48.746;9.232;2023-03-23T00:16:09;12.60;99.90
17849;DHT22;9050;48.746;9.232;2023-03-23T00:18:43;12.60;99.90
17849;DHT22;9050;48.746;9.232;2023-03-23T00:21:10;12.60;99.90
17849;DHT22;9050;48.746;9.232;2023-03-23T00:23:37;12.60;99.90
17849;DHT22;9050;48.746;9.232;2023-03-23T00:26:05;12.60;99.90
17849;DHT22;9050;48.746;9.232;2023-03-23T00:28:33;12.60;99.90
17849;DHT22;9050;48.746;9.232;2023-03-23T00:31:02;12.60;99.90
17849;DHT22;9050;48.746;9.232;2023-03-23T00:33:31;12.60;99.90
17849;DHT22;9050;48.746;9.232;2023-03-23T00:35:59;12.50;99.90
17849;DHT22;9050;48.746;9.232;2023-03-23T00:38:26;12.50;99.90
17849;DHT22;9050;48.746;9.232;2023-03-23T00:40:53;12.50;99.90
17849;DHT22;9050;48.746;9.232;2023-03-23T00:43:23;12.40;99.90
17849;DHT22;9050;48.746;9.232;2023-03-23T00:45:51;12.40;99.90
17849;DHT22;9050;48.746;9.232;2023-03-23T00:48:19;12.40;99.90
17849;DHT22;9050;48.746;9.232;2023-03-23T00:50:46;12.40;99.90
17849;DHT22;9050;48.746;9.232;2023-03-23T00:53:13;12.40;99.90
17849;DHT22;9050;48.746;9.232;2023-03-23T00:55:41;12.30;99.90
17849;DHT22;9050;48.746;9.232;2023-03-23T00:58:08;12.30;99.90
17849;DHT22;9050;48.746;9.232;2023-03-23T01:00:36;12.30;99.90
17849;DHT22;9050;48.746;9.232;2023-03-23T01:03:04;12.30;99.90
17849;DHT22;9050;48.746;9.232;2023-03-23T01:05:34;12.20;99.90
17849;DHT22;9050;48.746;9.232;2023-03-23T01:08:01;12.20;99.90
17849;DHT22;9050;48.746;9.232;2023-03-23T01:10:28;12.20;99.90
17849;DHT22;9050;48.746;9.232;2023-03-23T01:12:58;12.20;99.90
17849;DHT22;9050;48.746;9.232;2023-03-23T01:15:26;12.20;99.90
17849;DHT22;9050;48.746;9.232;2023-03-23T01:17:53;12.20;99.90
17849;DHT22;9050;48.746;9.232;2023-03-23T01:20:22;12.20;99.90
17849;DHT22;9050;48.746;9.232;2023-03-23T01:22:49;12.20;99.90
17849;DHT22;9050;48.746;9.232;2023-03-23T01:25:18;12.20;99.90
17849;DHT22;9050;48.746;9.232;2023-03-23T01:27:45;12.30;99.90
17849;DHT22;9050;48.746;9.232;2023-03-23T01:30:13;12.30;99.90
17849;DHT22;9050;48.746;9.232;2023-03-23T01:32:40;12.20;99.90
17849;DHT22;9050;48.746;9.232;2023-03-23T01:35:07;12.30;99.90
17849;DHT22;9050;48.746;9.232;2023-03-23T01:37:36;12.20;99.90
17849;DHT22;9050;48.746;9.232;2023-03-23T01:40:03;12.30;99.90
17849;DHT22;9050;48.746;9.232;2023-03-23T01:42:32;12.30;99.90
17849;DHT22;9050;48.746;9.232;2023-03-23T01:45:25;12.30;99.90
17849;DHT22;9050;48.746;9.232;2023-03-23T01:48:03;12.20;99.90
17849;DHT22;9050;48.746;9.232;2023-03-23T01:50:36;12.20;99.90
17849;DHT22;9050;48.746;9.232;2023-03-23T01:53:07;12.20;99.90
17849;DHT22;9050;48.746;9.232;2023-03-23T01:55:36;12.20;99.90
17849;DHT22;9050;48.746;9.232;2023-03-23T01:58:05;12.20;99.90
17849;DHT22;9050;48.746;9.232;2023-03-23T02:00:33;12.20;99.90
17849;DHT22;9050;48.746;9.232;2023-03-23T02:03:00;12.20;99.90
17849;DHT22;9050;48.746;9.232;2023-03-23T02:05:30;12.20;99.90
17849;DHT22;9050;48.746;9.232;2023-03-23T02:08:00;12.20;99.90
17849;DHT22;9050;48.746;9.232;2023-03-23T02:10:31;12.20;99.90
17849;DHT22;9050;48.746;9.232;2023-03-23T02:12:59;12.10;99.90
17849;DHT22;9050;48.746;9.232;2023-03-23T02:15:32;12.10;99.90
17849;DHT22;9050;48.746;9.232;2023-03-23T02:18:06;12.10;99.90
17849;DHT22;9050;48.746;9.232;2023-03-23T02:20:58;12.10;99.90
17849;DHT22;9050;48.746;9.232;2023-03-23T02:23:53;12.10;99.90
17849;DHT22;9050;48.746;9.232;2023-03-23T02:26:36;12.10;99.90
17849;DHT22;9050;48.746;9.232;2023-03-23T02:29:25;12.10;99.90
17849;DHT22;9050;48.746;9.232;2023-03-23T02:32:10;12.10;99.90
17849;DHT22;9050;48.746;9.232;2023-03-23T02:34:41;12.10;99.90
17849;DHT22;9050;48.746;9.232;2023-03-23T02:37:11;12.20;99.90
17849;DHT22;9050;48.746;9.232;2023-03-23T02:39:44;12.20;99.90
17849;DHT22;9050;48.746;9.232;2023-03-23T02:42:16;12.20;99.90
17849;DHT22;9050;48.746;9.232;2023-03-23T02:44:45;12.30;99.90
17849;DHT22;9050;48.746;9.232;2023-03-23T02:47:15;12.30;99.90
17849;DHT22;9050;48.746;9.232;2023-03-23T02:49:47;12.30;99.90
17849;DHT22;9050;48.746;9.232;2023-03-23T02:52:18;12.30;99.90
17849;DHT22;9050;48.746;9.232;2023-03-23T02:54:47;12.30;99.90
17849;DHT22;9050;48.746;9.232;2023-03-23T02:57:15;12.30;99.90
17849;DHT22;9050;48.746;9.232;2023-03-23T02:59:42;12.20;99.90
17849;DHT22;9050;48.746;9.232;2023-03-23T03:02:11;12.20;99.90
17849;DHT22;9050;48.746;9.232;2023-03-23T03:04:40;12.20;99.90
17849;DHT22;9050;48.746;9.232;2023-03-23T03:07:27;12.10;99.90
17849;DHT22;9050;48.746;9.232;2023-03-23T03:09:58;12.10;99.90
17849;DHT22;9050;48.746;9.232;2023-03-23T03:12:32;12.10;99.90
17849;DHT22;9050;48.746;9.232;2023-03-23T03:15:11;12.10;99.90
17849;DHT22;9050;48.746;9.232;2023-03-23T03:17:44;12.20;99.90
17849;DHT22;9050;48.746;9.232;2023-03-23T03:20:14;12.10;99.90
17849;DHT22;9050;48.746;9.232;2023-03-23T03:22:44;12.00;99.90
17849;DHT22;9050;48.746;9.232;2023-03-23T03:25:13;12.00;99.90
17849;DHT22;9050;48.746;9.232;2023-03-23T03:27:44;11.90;99.90
17849;DHT22;9050;48.746;9.232;2023-03-23T03:30:17;11.90;99.90
17849;DHT22;9050;48.746;9.232;2023-03-23T03:32:49;11.90;99.90
17849;DHT22;9050;48.746;9.232;2023-03-23T03:35:19;11.90;99.90
17849;DHT22;9050;48.746;9.232;2023-03-23T03:37:48;11.90;99.90
17849;DHT22;9050;48.746;9.232;2023-03-23T03:40:19;11.90;99.90
17849;DHT22;9050;48.746;9.232;2023-03-23T03:42:46;11.90;99.90
17849;DHT22;9050;48.746;9.232;2023-03-23T03:45:15;11.90;99.90
17849;DHT22;9050;48.746;9.232;2023-03-23T03:47:43;11.90;99.90
17849;DHT22;9050;48.746;9.232;2023-03-23T03:50:10;11.90;99.90
17849;DHT22;9050;48.746;9.232;2023-03-23T03:52:37;11.90;99.90
17849;DHT22;9050;48.746;9.232;2023-03-23T03:55:09;11.80;99.90
17849;DHT22;9050;48.746;9.232;2023-03-23T03:57:37;11.80;99.90
17849;DHT22;9050;48.746;9.232;2023-03-23T04:00:07;11.80;99.90
17849;DHT22;9050;48.746;9.232;2023-03-23T04:02:41;11.90;99.90
17849;DHT22;9050;48.746;9.232;2023-03-23T04:05:09;12.00;99.90
17849;DHT22;9050;48.746;9.232;2023-03-23T04:07:37;12.00;99.90
17849;DHT22;9050;48.746;9.232;2023-03-23T04:10:07;12.00;99.90
17849;DHT22;9050;48.746;9.232;2023-03-23T04:12:35;12.00;99.90
17849;DHT22;9050;48.746;9.232;2023-03-23T04:15:03;12.10;99.90
17849;DHT22;9050;48.746;9.232;2023-03-23T04:17:30;12.10;99.90
17849;DHT22;9050;48.746;9.232;2023-03-23T04:19:57;12.10;99.90
17849;DHT22;9050;48.746;9.232;2023-03-23T04:22:25;12.10;99.90
17849;DHT22;9050;48.746;9.232;2023-03-23T04:24:56;12.10;99.90
17849;DHT22;9050;48.746;9.232;2023-03-23T04:27:27;12.20;99.90
17849;DHT22;9050;48.746;9.232;2023-03-23T04:29:55;12.30;99.90
17849;DHT22;9050;48.746;9.232;2023-03-23T04:32:24;12.30;99.90
17849;DHT22;9050;48.746;9.232;2023-03-23T04:34:54;12.40;99.90
17849;DHT22;9050;48.746;9.232;2023-03-23T04:37:21;12.40;99.90
17849;DHT22;9050;48.746;9.232;2023-03-23T04:39:51;12.40;99.90
17849;DHT22;9050;48.746;9.232;2023-03-23T04:42:28;12.50;99.90
17849;DHT22;9050;48.746;9.232;2023-03-23T04:44:55;12.50;99.90
17849;DHT22;9050;48.746;9.232;2023-03-23T04:47:23;12.50;99.90
17849;DHT22;9050;48.746;9.232;2023-03-23T04:49:51;12.50;99.90
17849;DHT22;9050;48.746;9.232;2023-03-23T04:52:18;12.60;99.90
17849;DHT22;9050;48.746;9.232;2023-03-23T04:54:46;12.50;99.90
17849;DHT22;9050;48.746;9.232;2023-03-23T04:57:13;12.60;99.90
17849;DHT22;9050;48.746;9.232;2023-03-23T04:59:42;12.60;99.90
17849;DHT22;9050;48.746;9.232;2023-03-23T05:02:09;12.70;99.90
17849;DHT22;9050;48.746;9.232;2023-03-23T05:04:36;12.70;99.90
17849;DHT22;9050;48.746;9.232;2023-03-23T05:07:03;12.80;99.90
17849;DHT22;9050;48.746;9.232;2023-03-23T05:09:30;12.80;99.90
17849;DHT22;9050;48.746;9.232;2023-03-23T05:11:57;12.80;99.90
17849;DHT22;9050;48.746;9.232;2023-03-23T05:14:25;12.80;99.90
17849;DHT22;9050;48.746;9.232;2023-03-23T05:16:53;12.80;99.90
17849;DHT22;9050;48.746;9.232;2023-03-23T05:19:21;12.80;99.90
17849;DHT22;9050;48.746;9.232;2023-03-23T05:21:48;12.70;99.90
17849;DHT22;9050;48.746;9.232;2023-03-23T05:24:15;12.70;99.90
17849;DHT22;9050;48.746;9.232;2023-03-23T05:26:43;12.60;99.90
17849;DHT22;9050;48.746;9.232;2023-03-23T05:29:14;12.60;99.90
17849;DHT22;9050;48.746;9.232;2023-03-23T05:31:41;12.60;99.90
17849;DHT22;9050;48.746;9.232;2023-03-23T05:34:09;12.70;99.90
17849;DHT22;9050;48.746;9.232;2023-03-23T05:36:37;12.70;99.90
17849;DHT22;9050;48.746;9.232;2023-03-23T05:39:04;12.70;99.90
17849;DHT22;9050;48.746;9.232;2023-03-23T05:41:31;12.70;99.90
17849;DHT22;9050;48.746;9.232;2023-03-23T05:43:58;12.80;99.90
17849;DHT22;9050;48.746;9.232;2023-03-23T05:46:25;12.80;99.90
17849;DHT22;9050;48.746;9.232;2023-03-23T05:48:52;12.80;99.90
17849;DHT22;9050;48.746;9.232;2023-03-23T05:51:20;12.80;99.90
17849;DHT22;9050;48.746;9.232;2023-03-23T05:53:47;12.80;99.90
17849;DHT22;9050;48.746;9.232;2023-03-23T05:56:14;12.80;99.90
17849;DHT22;9050;48.746;9.232;2023-03-23T05:58:41;12.90;99.90
17849;DHT22;9050;48.746;9.232;2023-03-23T06:01:08;12.80;99.90
17849;DHT22;9050;48.746;9.232;2023-03-23T06:03:38;12.90;99.90
17849;DHT22;9050;48.746;9.232;2023-03-23T06:06:05;12.90;99.90
17849;DHT22;9050;48.746;9.232;2023-03-23T06:08:34;13.00;99.90
17849;DHT22;9050;48.746;9.232;2023-03-23T06:11:02;13.00;99.90
17849;DHT22;9050;48.746;9.232;2023-03-23T06:13:29;13.10;99.90
17849;DHT22;9050;48.746;9.232;2023-03-23T06:15:56;13.20;99.90
17849;DHT22;9050;48.746;9.232;2023-03-23T06:18:23;13.20;99.90
17849;DHT22;9050;48.746;9.232;2023-03-23T06:20:50;13.20;99.90
17849;DHT22;9050;48.746;9.232;2023-03-23T06:23:17;13.30;99.90
17849;DHT22;9050;48.746;9.232;2023-03-23T06:25:46;13.20;99.90
17849;DHT22;9050;48.746;9.232;2023-03-23T06:28:12;13.20;99.90
17849;DHT22;9050;48.746;9.232;2023-03-23T06:30:40;13.20;99.90
17849;DHT22;9050;48.746;9.232;2023-03-23T06:33:07;13.20;99.90
17849;DHT22;9050;48.746;9.232;2023-03-23T06:35:35;13.30;99.90
17849;DHT22;9050;48.746;9.232;2023-03-23T06:38:01;13.30;99.90
17849;DHT22;9050;48.746;9.232;2023-03-23T06:40:28;13.20;99.90
17849;DHT22;9050;48.746;9.232;2023-03-23T06:42:58;13.20;99.90
17849;DHT22;9050;48.746;9.232;2023-03-23T06:45:25;13.20;99.90
17849;DHT22;9050;48.746;9.232;2023-03-23T06:47:52;13.10;99.90
17849;DHT22;9050;48.746;9.232;2023-03-23T06:50:19;13.10;99.90
17849;DHT22;9050;48.746;9.232;2023-03-23T06:52:46;13.10;99.90
17849;DHT22;9050;48.746;9.232;2023-03-23T06:55:13;13.10;99.90
17849;DHT22;9050;48.746;9.232;2023-03-23T06:57:41;13.20;99.90
17849;DHT22;9050;48.746;9.232;2023-03-23T07:00:11;13.30;99.90
17849;DHT22;9050;48.746;9.232;2023-03-23T07:02:39;13.60;99.90
17849;DHT22;9050;48.746;9.232;2023-03-23T07:05:06;13.80;99.90
17849;DHT22;9050;48.746;9.232;2023-03-23T07:07:34;14.20;99.90
17849;DHT22;9050;48.746;9.232;2023-03-23T07:10:01;14.50;99.90
17849;DHT22;9050;48.746;9.232;2023-03-23T07:12:29;14.90;99.90
17849;DHT22;9050;48.746;9.232;2023-03-23T07:14:56;15.00;99.90
17849;DHT22;9050;48.746;9.232;2023-03-23T07:17:24;15.00;99.90
17849;DHT22;9050;48.746;9.232;2023-03-23T07:19:51;14.90;99.90
17849;DHT22;9050;48.746;9.232;2023-03-23T07:22:18;14.70;99.90
17849;DHT22;9050;48.746;9.232;2023-03-23T07:24:45;14.60;99.90
17849;DHT22;9050;48.746;9.232;2023-03-23T07:27:11;14.70;99.90
17849;DHT22;9050;48.746;9.232;2023-03-23T07:29:39;14.70;99.90
17849;DHT22;9050;48.746;9.232;2023-03-23T07:32:08;14.60;99.90
17849;DHT22;9050;48.746;9.232;2023-03-23T07:34:38;14.50;99.90
17849;DHT22;9050;48.746;9.232;2023-03-23T07:37:05;14.40;99.90
17849;DHT22;9050;48.746;9.232;2023-03-23T07:39:32;14.40;99.90
17849;DHT22;9050;48.746;9.232;2023-03-23T07:42:00;14.30;99.90
17849;DHT22;9050;48.746;9.232;2023-03-23T07:44:27;14.40;99.90
17849;DHT22;9050;48.746;9.232;2023-03-23T07:46:54;14.40;99.90
17849;DHT22;9050;48.746;9.232;2023-03-23T07:49:20;14.60;99.90
17849;DHT22;9050;48.746;9.232;2023-03-23T07:51:49;14.80;99.90
17849;DHT22;9050;48.746;9.232;2023-03-23T07:54:15;15.00;99.90
17849;DHT22;9050;48.746;9.232;2023-03-23T07:56:42;15.10;99.90
17849;DHT22;9050;48.746;9.232;2023-03-23T07:59:11;15.30;99.90
17849;DHT22;9050;48.746;9.232;2023-03-23T08:01:38;15.60;99.90
17849;DHT22;9050;48.746;9.232;2023-03-23T08:04:05;16.00;99.90
17849;DHT22;9050;48.746;9.232;2023-03-23T08:06:34;16.40;99.90
17849;DHT22;9050;48.746;9.232;2023-03-23T08:09:02;16.50;99.90
17849;DHT22;9050;48.746;9.232;2023-03-23T08:11:32;16.70;99.90
17849;DHT22;9050;48.746;9.232;2023-03-23T08:14:00;16.40;99.90
17849;DHT22;9050;48.746;9.232;2023-03-23T08:16:26;16.20;99.90
17849;DHT22;9050;48.746;9.232;2023-03-23T08:18:53;16.00;99.90
17849;DHT22;9050;48.746;9.232;2023-03-23T08:21:20;16.10;99.90
17849;DHT22;9050;48.746;9.232;2023-03-23T08:23:47;16.10;99.90
17849;DHT22;9050;48.746;9.232;2023-03-23T08:26:16;16.10;99.90
17849;DHT22;9050;48.746;9.232;2023-03-23T08:28:43;16.10;99.90
17849;DHT22;9050;48.746;9.232;2023-03-23T08:31:11;16.20;99.90
17849;DHT22;9050;48.746;9.232;2023-03-23T08:33:39;16.40;99.90
17849;DHT22;9050;48.746;9.232;2023-03-23T08:36:07;16.10;99.90
17849;DHT22;9050;48.746;9.232;2023-03-23T08:38:34;16.60;99.90
17849;DHT22;9050;48.746;9.232;2023-03-23T08:41:03;16.50;99.90
17849;DHT22;9050;48.746;9.232;2023-03-23T08:43:32;16.80;99.90
17849;DHT22;9050;48.746;9.232;2023-03-23T08:46:00;16.70;99.90
17849;DHT22;9050;48.746;9.232;2023-03-23T08:48:27;16.60;99.90
17849;DHT22;9050;48.746;9.232;2023-03-23T08:50:54;16.80;99.90
17849;DHT22;9050;48.746;9.232;2023-03-23T08:53:21;16.60;99.90
17849;DHT22;9050;48.746;9.232;2023-03-23T08:55:48;15.90;99.90
17849;DHT22;9050;48.746;9.232;2023-03-23T08:58:15;15.80;99.90
17849;DHT22;9050;48.746;9.232;2023-03-23T09:00:44;15.60;99.90
17849;DHT22;9050;48.746;9.232;2023-03-23T09:03:11;15.70;99.90
17849;DHT22;9050;48.746;9.232;2023-03-23T09:05:38;15.60;99.90
17849;DHT22;9050;48.746;9.232;2023-03-23T09:08:11;15.90;99.90
17849;DHT22;9050;48.746;9.232;2023-03-23T09:10:39;16.10;99.90
17849;DHT22;9050;48.746;9.232;2023-03-23T09:13:06;16.20;99.90
17849;DHT22;9050;48.746;9.232;2023-03-23T09:15:33;16.50;99.90
17849;DHT22;9050;48.746;9.232;2023-03-23T09:18:02;17.00;99.90
17849;DHT22;9050;48.746;9.232;2023-03-23T09:20:29;17.30;99.90
17849;DHT22;9050;48.746;9.232;2023-03-23T09:22:57;17.00;99.90
17849;DHT22;9050;48.746;9.232;2023-03-23T09:25:25;17.10;99.90
17849;DHT22;9050;48.746;9.232;2023-03-23T09:27:54;17.40;99.90
17849;DHT22;9050;48.746;9.232;2023-03-23T09:30:23;17.40;99.90
17849;DHT22;9050;48.746;9.232;2023-03-23T09:32:51;17.20;99.90
17849;DHT22;9050;48.746;9.232;2023-03-23T09:35:21;17.20;99.90
17849;DHT22;9050;48.746;9.232;2023-03-23T09:37:49;17.20;99.90
17849;DHT22;9050;48.746;9.232;2023-03-23T09:40:18;17.40;99.90
17849;DHT22;9050;48.746;9.232;2023-03-23T09:42:58;17.30;99.90
17849;DHT22;9050;48.746;9.232;2023-03-23T09:45:36;16.80;99.90
17849;DHT22;9050;48.746;9.232;2023-03-23T09:48:23;16.50;99.90
17849;DHT22;9050;48.746;9.232;2023-03-23T09:50:59;16.30;99.90
17849;DHT22;9050;48.746;9.232;2023-03-23T09:53:32;16.40;99.90
17849;DHT22;9050;48.746;9.232;2023-03-23T09:56:00;16.30;99.90
17849;DHT22;9050;48.746;9.232;2023-03-23T09:58:33;16.20;99.90
17849;DHT22;9050;48.746;9.232;2023-03-23T10:01:06;16.50;99.90
17849;DHT22;9050;48.746;9.232;2023-03-23T10:03:38;16.60;99.90
17849;DHT22;9050;48.746;9.232;2023-03-23T10:06:10;16.70;99.90
17849;DHT22;9050;48.746;9.232;2023-03-23T10:08:43;16.40;99.90
17849;DHT22;9050;48.746;9.232;2023-03-23T10:11:16;16.70;99.90
17849;DHT22;9050;48.746;9.232;2023-03-23T10:14:01;16.40;99.90
17849;DHT22;9050;48.746;9.232;2023-03-23T10:16:39;16.60;99.90
17849;DHT22;9050;48.746;9.232;2023-03-23T10:19:11;16.90;99.90
17849;DHT22;9050;48.746;9.232;2023-03-23T10:21:42;17.00;99.90
17849;DHT22;9050;48.746;9.232;2023-03-23T10:24:15;17.30;99.90
17849;DHT22;9050;48.746;9.232;2023-03-23T10:26:48;17.40;99.90
17849;DHT22;9050;48.746;9.232;2023-03-23T10:29:21;17.60;99.90
17849;DHT22;9050;48.746;9.232;2023-03-23T10:31:53;18.40;99.90
17849;DHT22;9050;48.746;9.232;2023-03-23T10:34:25;18.40;99.90
17849;DHT22;9050;48.746;9.232;2023-03-23T10:37:02;17.60;99.90
17849;DHT22;9050;48.746;9.232;2023-03-23T10:39:37;17.60;99.90
17849;DHT22;9050;48.746;9.232;2023-03-23T10:42:05;17.10;99.90
17849;DHT22;9050;48.746;9.232;2023-03-23T10:44:34;17.60;99.90
17849;DHT22;9050;48.746;9.232;2023-03-23T10:47:02;17.70;99.90
17849;DHT22;9050;48.746;9.232;2023-03-23T10:49:34;17.90;99.90
17849;DHT22;9050;48.746;9.232;2023-03-23T10:52:06;17.60;99.90
17849;DHT22;9050;48.746;9.232;2023-03-23T10:54:37;17.80;99.90
17849;DHT22;9050;48.746;9.232;2023-03-23T10:57:20;17.20;99.90
17849;DHT22;9050;48.746;9.232;2023-03-23T10:59:47;16.70;99.90
17849;DHT22;9050;48.746;9.232;2023-03-23T11:02:17;16.90;99.90
17849;DHT22;9050;48.746;9.232;2023-03-23T11:04:59;17.00;99.90
17849;DHT22;9050;48.746;9.232;2023-03-23T11:07:31;16.90;99.90
17849;DHT22;9050;48.746;9.232;2023-03-23T11:10:07;17.10;99.90
17849;DHT22;9050;48.746;9.232;2023-03-23T11:12:36;17.40;99.90
17849;DHT22;9050;48.746;9.232;2023-03-23T11:15:15;18.00;99.90
17849;DHT22;9050;48.746;9.232;2023-03-23T11:17:43;18.30;99.90
17849;DHT22;9050;48.746;9.232;2023-03-23T11:20:11;18.30;99.90
17849;DHT22;9050;48.746;9.232;2023-03-23T11:22:42;18.50;99.90
17849;DHT22;9050;48.746;9.232;2023-03-23T11:25:13;17.90;99.90
17849;DHT22;9050;48.746;9.232;2023-03-23T11:27:42;17.70;99.90
17849;DHT22;9050;48.746;9.232;2023-03-23T11:30:18;17.60;99.90
17849;DHT22;9050;48.746;9.232;2023-03-23T11:32:46;17.50;99.90
17849;DHT22;9050;48.746;9.232;2023-03-23T11:35:17;17.30;99.90
17849;DHT22;9050;48.746;9.232;2023-03-23T11:37:49;17.40;99.90
17849;DHT22;9050;48.746;9.232;2023-03-23T11:40:20;17.60;99.90
17849;DHT22;9050;48.746;9.232;2023-03-23T11:42:49;17.70;99.90
17849;DHT22;9050;48.746;9.232;2023-03-23T11:45:33;17.80;99.90
17849;DHT22;9050;48.746;9.232;2023-03-23T11:48:11;17.90;99.90
17849;DHT22;9050;48.746;9.232;2023-03-23T11:50:48;18.10;99.90
17849;DHT22;9050;48.746;9.232;2023-03-23T11:53:25;18.70;99.90
17849;DHT22;9050;48.746;9.232;2023-03-23T11:56:01;18.80;99.90
17849;DHT22;9050;48.746;9.232;2023-03-23T11:58:29;18.50;99.90
17849;DHT22;9050;48.746;9.232;2023-03-23T12:01:05;18.50;99.90
17849;DHT22;9050;48.746;9.232;2023-03-23T12:03:52;18.00;99.90
17849;DHT22;9050;48.746;9.232;2023-03-23T12:06:28;17.80;99.90
17849;DHT22;9050;48.746;9.232;2023-03-23T12:09:07;17.80;99.90
17849;DHT22;9050;48.746;9.232;2023-03-23T12:11:55;18.50;99.90
17849;DHT22;9050;48.746;9.232;2023-03-23T12:14:31;18.50;99.90
17849;DHT22;9050;48.746;9.232;2023-03-23T12:17:11;18.30;99.90
17849;DHT22;9050;48.746;9.232;2023-03-23T12:19:48;18.50;99.90
17849;DHT22;9050;48.746;9.232;2023-03-23T12:22:28;18.80;99.90
17849;DHT22;9050;48.746;9.232;2023-03-23T12:25:16;18.50;99.90
17849;DHT22;9050;48.746;9.232;2023-03-23T12:27:49;18.80;99.90
17849;DHT22;9050;48.746;9.232;2023-03-23T12:30:29;18.90;99.90
17849;DHT22;9050;48.746;9.232;2023-03-23T12:33:11;18.50;99.90
17849;DHT22;9050;48.746;9.232;2023-03-23T12:35:49;18.00;99.90
17849;DHT22;9050;48.746;9.232;2023-03-23T12:38:41;17.90;99.90
17849;DHT22;9050;48.746;9.232;2023-03-23T12:41:16;18.10;99.90
17849;DHT22;9050;48.746;9.232;2023-03-23T12:43:52;18.40;99.90
17849;DHT22;9050;48.746;9.232;2023-03-23T12:46:41;18.00;99.90
17849;DHT22;9050;48.746;9.232;2023-03-23T12:49:14;17.40;99.90
17849;DHT22;9050;48.746;9.232;2023-03-23T12:51:45;17.70;99.90
17849;DHT22;9050;48.746;9.232;2023-03-23T12:54:19;18.20;99.90
17849;DHT22;9050;48.746;9.232;2023-03-23T12:56:54;18.10;99.90
17849;DHT22;9050;48.746;9.232;2023-03-23T12:59:26;18.30;99.90
17849;DHT22;9050;48.746;9.232;2023-03-23T13:02:01;18.20;99.90
17849;DHT22;9050;48.746;9.232;2023-03-23T13:04:32;18.50;99.90
17849;DHT22;9050;48.746;9.232;2023-03-23T13:07:06;18.40;99.90
17849;DHT22;9050;48.746;9.232;2023-03-23T13:09:43;18.60;99.90
17849;DHT22;9050;48.746;9.232;2023-03-23T13:12:15;18.80;99.90
17849;DHT22;9050;48.746;9.232;2023-03-23T13:14:50;18.70;99.90
17849;DHT22;9050;48.746;9.232;2023-03-23T13:17:26;18.80;99.90
17849;DHT22;9050;48.746;9.232;2023-03-23T13:20:13;19.00;99.90
17849;DHT22;9050;48.746;9.232;2023-03-23T13:22:47;19.10;99.90
17849;DHT22;9050;48.746;9.232;2023-03-23T13:25:19;19.10;99.90
17849;DHT22;9050;48.746;9.232;2023-03-23T13:27:57;19.20;99.90
17849;DHT22;9050;48.746;9.232;2023-03-23T13:30:26;19.10;99.90
17849;DHT22;9050;48.746;9.232;2023-03-23T13:33:02;19.20;99.90
17849;DHT22;9050;48.746;9.232;2023-03-23T13:35:34;19.10;99.90
17849;DHT22;9050;48.746;9.232;2023-03-23T13:38:12;19.50;99.90
17849;DHT22;9050;48.746;9.232;2023-03-23T13:40:43;19.40;99.90
17849;DHT22;9050;48.746;9.232;2023-03-23T13:43:12;19.00;99.90
17849;DHT22;9050;48.746;9.232;2023-03-23T13:45:44;19.20;99.90
17849;DHT22;9050;48.746;9.232;2023-03-23T13:48:21;18.60;99.90
17849;DHT22;9050;48.746;9.232;2023-03-23T13:50:54;18.40;99.90
17849;DHT22;9050;48.746;9.232;2023-03-23T13:53:27;18.40;99.90
17849;DHT22;9050;48.746;9.232;2023-03-23T13:56:07;18.90;99.90
17849;DHT22;9050;48.746;9.232;2023-03-23T13:58:46;18.60;99.90
17849;DHT22;9050;48.746;9.232;2023-03-23T14:01:17;18.80;99.90
17849;DHT22;9050;48.746;9.232;2023-03-23T14:03:47;18.80;99.90
17849;DHT22;9050;48.746;9.232;2023-03-23T14:06:17;19.00;99.90
17849;DHT22;9050;48.746;9.232;2023-03-23T14:08:48;18.50;99.90
17849;DHT22;9050;48.746;9.232;2023-03-23T14:11:20;18.50;99.90
17849;DHT22;9050;48.746;9.232;2023-03-23T14:14:01;18.10;99.90
17849;DHT22;9050;48.746;9.232;2023-03-23T14:16:35;18.10;99.90
17849;DHT22;9050;48.746;9.232;2023-03-23T14:19:13;17.70;99.90
17849;DHT22;9050;48.746;9.232;2023-03-23T14:21:42;17.60;99.90
17849;DHT22;9050;48.746;9.232;2023-03-23T14:24:17;17.70;99.90
17849;DHT22;9050;48.746;9.232;2023-03-23T14:26:44;17.50;99.90
17849;DHT22;9050;48.746;9.232;2023-03-23T14:29:13;17.30;99.90
17849;DHT22;9050;48.746;9.232;2023-03-23T14:31:41;17.30;99.90
17849;DHT22;9050;48.746;9.232;2023-03-23T14:34:13;17.30;99.90
17849;DHT22;9050;48.746;9.232;2023-03-23T14:36:41;17.30;99.90
17849;DHT22;9050;48.746;9.232;2023-03-23T14:39:16;17.40;99.90
17849;DHT22;9050;48.746;9.232;2023-03-23T14:41:44;17.20;99.90
17849;DHT22;9050;48.746;9.232;2023-03-23T14:44:15;17.50;99.90
17849;DHT22;9050;48.746;9.232;2023-03-23T14:46:43;17.60;99.90
17849;DHT22;9050;48.746;9.232;2023-03-23T14:49:14;17.80;99.90
17849;DHT22;9050;48.746;9.232;2023-03-23T14:51:47;17.80;99.90
17849;DHT22;9050;48.746;9.232;2023-03-23T14:54:14;17.80;99.90
17849;DHT22;9050;48.746;9.232;2023-03-23T14:56:41;17.80;99.90
17849;DHT22;9050;48.746;9.232;2023-03-23T14:59:10;17.60;99.90
17849;DHT22;9050;48.746;9.232;2023-03-23T15:01:40;17.80;99.90
17849;DHT22;9050;48.746;9.232;2023-03-23T15:04:11;17.60;99.90
17849;DHT22;9050;48.746;9.232;2023-03-23T15:06:41;17.60;99.90
17849;DHT22;9050;48.746;9.232;2023-03-23T15:09:11;17.50;99.90
17849;DHT22;9050;48.746;9.232;2023-03-23T15:11:40;17.60;99.90
17849;DHT22;9050;48.746;9.232;2023-03-23T15:14:15;17.60;99.90
17849;DHT22;9050;48.746;9.232;2023-03-23T15:16:47;17.50;99.90
17849;DHT22;9050;48.746;9.232;2023-03-23T15:19:17;17.70;99.90
17849;DHT22;9050;48.746;9.232;2023-03-23T15:21:50;17.60;99.90
17849;DHT22;9050;48.746;9.232;2023-03-23T15:24:24;17.60;99.90
17849;DHT22;9050;48.746;9.232;2023-03-23T15:26:52;17.50;99.90
17849;DHT22;9050;48.746;9.232;2023-03-23T15:29:21;17.40;99.90
17849;DHT22;9050;48.746;9.232;2023-03-23T15:31:52;17.30;99.90
17849;DHT22;9050;48.746;9.232;2023-03-23T15:34:31;17.30;99.90
17849;DHT22;9050;48.746;9.232;2023-03-23T15:37:01;17.40;99.90
17849;DHT22;9050;48.746;9.232;2023-03-23T15:39:28;17.40;99.90
17849;DHT22;9050;48.746;9.232;2023-03-23T15:41:57;17.40;99.90
17849;DHT22;9050;48.746;9.232;2023-03-23T15:44:30;17.30;99.90
17849;DHT22;9050;48.746;9.232;2023-03-23T15:47:15;17.10;99.90
17849;DHT22;9050;48.746;9.232;2023-03-23T15:49:43;17.00;99.90
17849;DHT22;9050;48.746;9.232;2023-03-23T15:52:11;16.90;99.90
17849;DHT22;9050;48.746;9.232;2023-03-23T15:54:38;16.80;99.90
17849;DHT22;9050;48.746;9.232;2023-03-23T15:57:12;16.70;99.90
17849;DHT22;9050;48.746;9.232;2023-03-23T15:59:39;16.70;99.90
17849;DHT22;9050;48.746;9.232;2023-03-23T16:02:13;16.70;99.90
17849;DHT22;9050;48.746;9.232;2023-03-23T16:04:42;16.60;99.90
17849;DHT22;9050;48.746;9.232;2023-03-23T16:07:09;16.60;99.90